createdAt,value
2023-01-17T00:00:34.890Z,98546.03
2023-01-17T00:03:01.590Z,98542.31
2023-01-17T00:05:46.524Z,98545.41
2023-01-17T00:08:31.888Z,98553.13
2023-01-17T00:10:58.785Z,98557.28
2023-01-17T00:13:25.358Z,98571.19
2023-01-17T00:15:52.150Z,98565.16
2023-01-17T00:18:18.829Z,98575.19
2023-01-17T00:21:04.172Z,98570.22
2023-01-17T00:23:49.208Z,98562.34
2023-01-17T00:26:18.642Z,98574.69
2023-01-17T00:28:46.016Z,98577.63
2023-01-17T00:31:15.866Z,98588.13
2023-01-17T00:33:42.642Z,98590.75
2023-01-17T00:36:10.752Z,98597.06
2023-01-17T00:38:38.951Z,98593.66
2023-01-17T00:41:13.365Z,98596.97
2023-01-17T00:43:58.951Z,98603.09
2023-01-17T00:46:44.605Z,98613.75
2023-01-17T00:49:29.891Z,98622.44
2023-01-17T00:52:15.019Z,98644.13
2023-01-17T00:55:00.228Z,98647.56
2023-01-17T00:57:45.248Z,98647.69
2023-01-17T01:00:30.977Z,98649.38
2023-01-17T01:03:17.166Z,98650.50
2023-01-17T01:06:02.251Z,98649.31
2023-01-17T01:08:48.587Z,98644.63
2023-01-17T01:11:37.124Z,98641.78
2023-01-17T01:14:22.875Z,98636.25
2023-01-17T01:17:07.982Z,98646.25
2023-01-17T01:19:52.951Z,98659.38
2023-01-17T01:22:38.041Z,98666.69
2023-01-17T01:25:23.472Z,98672.41
2023-01-17T01:28:08.484Z,98674.75
2023-01-17T01:30:53.797Z,98675.53
2023-01-17T01:33:20.330Z,98681.56
2023-01-17T01:35:52.071Z,98690.19
2023-01-17T01:38:20.637Z,98671.00
2023-01-17T01:40:52.174Z,98683.81
2023-01-17T01:43:21.788Z,98690.41
2023-01-17T01:45:57.250Z,98690.97
2023-01-17T01:48:31.990Z,98695.72
2023-01-17T01:50:58.874Z,98694.44
2023-01-17T01:53:26.113Z,98696.56
2023-01-17T01:55:53.292Z,98701.31
2023-01-17T01:58:25.393Z,98707.13
2023-01-17T02:00:52.163Z,98718.47
2023-01-17T02:03:27.564Z,98718.22
2023-01-17T02:05:54.239Z,98723.50
2023-01-17T02:08:24.112Z,98725.34
2023-01-17T02:10:51.467Z,98738.47
2023-01-17T02:13:20.216Z,98745.28
2023-01-17T02:16:11.378Z,98748.94
2023-01-17T02:19:22.801Z,98777.00
2023-01-17T02:22:37.820Z,98776.50
2023-01-17T02:25:13.395Z,98782.00
2023-01-17T02:27:53.737Z,98782.78
2023-01-17T02:30:42.531Z,98784.91
2023-01-17T02:33:29.022Z,98775.00
2023-01-17T02:36:04.615Z,98783.13
2023-01-17T02:38:59.476Z,98774.47
2023-01-17T02:41:34.337Z,98781.56
2023-01-17T02:44:02.186Z,98770.28
2023-01-17T02:46:28.811Z,98781.84
2023-01-17T02:48:56.355Z,98775.53
2023-01-17T02:51:30.380Z,98790.75
2023-01-17T02:54:06.016Z,98787.84
2023-01-17T02:57:03.202Z,98793.38
2023-01-17T02:59:38.805Z,98793.66
2023-01-17T03:02:17.885Z,98791.31
2023-01-17T03:05:06.293Z,98798.09
2023-01-17T03:07:34.148Z,98799.19
2023-01-17T03:10:04.973Z,98795.00
2023-01-17T03:12:35.573Z,98801.28
2023-01-17T03:15:02.365Z,98803.91
2023-01-17T03:17:32.350Z,98803.13
2023-01-17T03:19:59.026Z,98805.25
2023-01-17T03:22:25.567Z,98805.50
2023-01-17T03:24:52.156Z,98810.25
2023-01-17T03:27:18.825Z,98807.34
2023-01-17T03:29:45.496Z,98818.09
2023-01-17T03:32:12.077Z,98822.31
2023-01-17T03:34:38.588Z,98821.00
2023-01-17T03:37:05.131Z,98829.38
2023-01-17T03:39:31.716Z,98818.63
2023-01-17T03:41:58.214Z,98827.81
2023-01-17T03:44:24.784Z,98833.81
2023-01-17T03:46:51.526Z,98831.22
2023-01-17T03:49:19.307Z,98834.38
2023-01-17T03:51:45.963Z,98844.38
2023-01-17T03:54:12.577Z,98837.53
2023-01-17T03:56:39.068Z,98840.94
2023-01-17T03:59:05.574Z,98842.00
2023-01-17T04:01:32.212Z,98843.84
2023-01-17T04:03:58.883Z,98842.28
2023-01-17T04:06:25.507Z,98850.41
2023-01-17T04:08:52.172Z,98846.75
2023-01-17T04:11:18.733Z,98850.41
2023-01-17T04:13:45.321Z,98855.94
2023-01-17T04:16:17.508Z,98856.72
2023-01-17T04:18:44.863Z,98859.84
2023-01-17T04:21:11.528Z,98863.81
2023-01-17T04:23:38.026Z,98870.16
2023-01-17T04:26:04.764Z,98870.19
2023-01-17T04:28:31.863Z,98868.63
2023-01-17T04:31:00.124Z,98859.22
2023-01-17T04:33:26.767Z,98861.03
2023-01-17T04:35:54.232Z,98856.59
2023-01-17T04:38:21.085Z,98858.13
2023-01-17T04:40:48.713Z,98851.63
2023-01-17T04:43:16.152Z,98854.22
2023-01-17T04:45:42.907Z,98848.22
2023-01-17T04:48:12.790Z,98842.97
2023-01-17T04:50:40.107Z,98846.38
2023-01-17T04:53:07.124Z,98847.94
2023-01-17T04:55:33.798Z,98847.94
2023-01-17T04:58:00.379Z,98853.19
2023-01-17T05:00:26.973Z,98855.81
2023-01-17T05:02:53.626Z,98854.22
2023-01-17T05:05:20.186Z,98850.84
2023-01-17T05:07:54.049Z,98849.78
2023-01-17T05:10:20.652Z,98855.50
2023-01-17T05:12:55.637Z,98859.47
2023-01-17T05:15:22.685Z,98862.34
2023-01-17T05:17:50.919Z,98861.31
2023-01-17T05:20:17.764Z,98868.09
2023-01-17T05:22:44.351Z,98864.97
2023-01-17T05:25:10.987Z,98868.16
2023-01-17T05:27:37.594Z,98875.22
2023-01-17T05:30:04.748Z,98884.13
2023-01-17T05:32:31.329Z,98882.06
2023-01-17T05:34:57.771Z,98873.69
2023-01-17T05:37:24.345Z,98877.09
2023-01-17T05:39:50.950Z,98870.31
2023-01-17T05:42:17.539Z,98872.94
2023-01-17T05:44:44.145Z,98875.81
2023-01-17T05:47:10.874Z,98887.88
2023-01-17T05:49:38.916Z,98886.03
2023-01-17T05:52:05.653Z,98891.56
2023-01-17T05:54:32.076Z,98896.00
2023-01-17T05:56:58.666Z,98902.28
2023-01-17T05:59:36.693Z,98912.00
2023-01-17T06:02:04.133Z,98908.06
2023-01-17T06:04:30.902Z,98905.97
2023-01-17T06:06:57.693Z,98902.59
2023-01-17T06:09:24.213Z,98898.91
2023-01-17T06:11:50.741Z,98914.09
2023-01-17T06:14:17.259Z,98911.47
2023-01-17T06:16:43.867Z,98918.59
2023-01-17T06:19:10.646Z,98918.59
2023-01-17T06:21:37.393Z,98928.03
2023-01-17T06:24:04.452Z,98932.97
2023-01-17T06:26:31.059Z,98945.78
2023-01-17T06:28:57.710Z,98923.28
2023-01-17T06:31:24.423Z,98924.56
2023-01-17T06:33:51.180Z,98925.09
2023-01-17T06:36:17.727Z,98913.31
2023-01-17T06:38:44.541Z,98912.25
2023-01-17T06:41:11.096Z,98916.94
2023-01-17T06:43:37.705Z,98906.19
2023-01-17T06:46:04.275Z,98913.00
2023-01-17T06:48:30.792Z,98914.56
2023-01-17T06:50:58.078Z,98913.00
2023-01-17T06:53:24.898Z,98920.56
2023-01-17T06:55:52.546Z,98925.31
2023-01-17T06:58:19.135Z,98928.97
2023-01-17T07:00:45.915Z,98930.31
2023-01-17T07:03:21.019Z,98925.34
2023-01-17T07:05:48.987Z,98931.63
2023-01-17T07:08:16.991Z,98926.91
2023-01-17T07:10:45.134Z,98923.53
2023-01-17T07:13:12.703Z,98933.75
2023-01-17T07:15:40.052Z,98941.34
2023-01-17T07:18:07.389Z,98930.34
2023-01-17T07:20:33.982Z,98933.22
2023-01-17T07:23:00.532Z,98938.47
2023-01-17T07:25:27.913Z,98933.78
2023-01-17T07:27:57.498Z,98940.03
2023-01-17T07:30:24.925Z,98939.78
2023-01-17T07:32:55.675Z,98940.84
2023-01-17T07:35:23.515Z,98946.59
2023-01-17T07:37:51.703Z,98940.31
2023-01-17T07:40:20.219Z,98936.09
2023-01-17T07:42:47.082Z,98937.94
2023-01-17T07:45:15.638Z,98944.22
2023-01-17T07:47:42.548Z,98939.72
2023-01-17T07:50:09.761Z,98946.25
2023-01-17T07:52:36.441Z,98957.22
2023-01-17T07:55:03.076Z,98950.66
2023-01-17T07:57:29.827Z,98946.19
2023-01-17T07:59:56.479Z,98954.81
2023-01-17T08:02:23.775Z,98947.19
2023-01-17T08:04:50.253Z,98955.78
2023-01-17T08:07:16.954Z,98959.97
2023-01-17T08:09:44.239Z,98959.91
2023-01-17T08:12:10.804Z,98952.03
2023-01-17T08:14:37.305Z,98954.09
2023-01-17T08:17:07.160Z,98959.84
2023-01-17T08:19:33.799Z,98966.13
2023-01-17T08:22:00.361Z,98962.47
2023-01-17T08:24:27.120Z,98970.81
2023-01-17T08:26:56.424Z,98969.75
2023-01-17T08:29:23.734Z,98967.38
2023-01-17T08:31:50.686Z,98970.25
2023-01-17T08:34:17.302Z,98970.75
2023-01-17T08:36:45.061Z,98971.78
2023-01-17T08:39:14.516Z,98970.72
2023-01-17T08:41:41.205Z,98981.72
2023-01-17T08:44:07.751Z,98976.97
2023-01-17T08:46:34.350Z,98977.22
2023-01-17T08:49:02.805Z,98985.84
2023-01-17T08:51:30.170Z,98981.38
2023-01-17T08:53:56.927Z,98988.41
2023-01-17T08:56:27.372Z,98983.69
2023-01-17T08:58:54.102Z,98989.69
2023-01-17T09:01:21.615Z,98991.53
2023-01-17T09:03:52.014Z,98989.50
2023-01-17T09:06:33.264Z,98991.31
2023-01-17T09:08:59.769Z,98996.34
2023-01-17T09:11:26.657Z,99001.28
2023-01-17T09:13:55.923Z,99000.75
2023-01-17T09:16:22.689Z,98999.69
2023-01-17T09:18:49.661Z,99007.53
2023-01-17T09:21:17.905Z,99002.31
2023-01-17T09:23:45.120Z,99017.25
2023-01-17T09:26:19.372Z,99019.09
2023-01-17T09:28:46.355Z,99010.97
2023-01-17T09:31:13.217Z,99014.59
2023-01-17T09:33:42.655Z,99014.31
2023-01-17T09:36:10.981Z,99015.59
2023-01-17T09:38:38.167Z,99023.19
2023-01-17T09:41:22.014Z,99023.44
2023-01-17T09:44:02.605Z,99024.72
2023-01-17T09:46:33.620Z,99022.63
2023-01-17T09:49:07.940Z,99027.34
2023-01-17T09:51:36.164Z,99022.03
2023-01-17T09:54:02.907Z,99033.81
2023-01-17T09:56:38.464Z,99036.41
2023-01-17T09:59:35.634Z,99036.34
2023-01-17T10:02:30.180Z,99035.53
2023-01-17T10:05:19.390Z,99049.16
2023-01-17T10:08:20.913Z,99043.59
2023-01-17T10:11:08.914Z,99047.78
2023-01-17T10:14:15.643Z,99046.75
2023-01-17T10:16:54.874Z,99043.81
2023-01-17T10:19:44.933Z,99046.19
2023-01-17T10:22:23.519Z,99047.97
2023-01-17T10:25:15.856Z,99043.22
2023-01-17T10:27:59.225Z,99045.56
2023-01-17T10:30:34.681Z,99039.28
2023-01-17T10:33:12.700Z,99046.03
2023-01-17T10:35:51.569Z,99042.59
2023-01-17T10:38:19.507Z,99043.38
2023-01-17T10:40:51.383Z,99046.72
2023-01-17T10:43:44.209Z,99051.16
2023-01-17T10:46:28.650Z,99051.38
2023-01-17T10:48:57.172Z,99043.44
2023-01-17T10:51:43.900Z,99045.78
2023-01-17T10:54:29.332Z,99055.19
2023-01-17T10:56:56.051Z,99053.84
2023-01-17T10:59:31.319Z,99045.88
2023-01-17T11:01:58.797Z,99048.81
2023-01-17T11:04:36.892Z,99050.09
2023-01-17T11:07:14.139Z,99049.25
2023-01-17T11:09:43.953Z,99058.41
2023-01-17T11:12:20.896Z,99054.16
2023-01-17T11:15:05.617Z,99050.03
2023-01-17T11:17:33.751Z,99053.16
2023-01-17T11:20:16.984Z,99052.09
2023-01-17T11:22:49.431Z,99054.72
2023-01-17T11:25:22.373Z,99048.13
2023-01-17T11:28:06.902Z,99038.91
2023-01-17T11:30:34.112Z,99045.47
2023-01-17T11:33:08.546Z,99048.09
2023-01-17T11:35:37.416Z,99039.41
2023-01-17T11:38:14.870Z,99039.72
2023-01-17T11:40:42.461Z,99041.03
2023-01-17T11:43:12.019Z,99042.09
2023-01-17T11:45:40.065Z,99045.50
2023-01-17T11:48:13.476Z,99038.69
2023-01-17T11:50:41.826Z,99037.06
2023-01-17T11:53:28.972Z,99037.28
2023-01-17T11:56:05.808Z,99038.63
2023-01-17T11:58:38.672Z,99039.97
2023-01-17T12:01:37.189Z,99032.31
2023-01-17T12:04:24.318Z,99029.91
2023-01-17T12:06:57.940Z,99039.06
2023-01-17T12:09:46.681Z,99024.78
2023-01-17T12:12:50.952Z,99029.50
2023-01-17T12:15:52.173Z,99033.13
2023-01-17T12:18:30.621Z,99027.28
2023-01-17T12:21:16.581Z,99025.38
2023-01-17T12:24:23.923Z,99029.25
2023-01-17T12:26:53.356Z,99011.03
2023-01-17T12:29:25.721Z,99018.66
2023-01-17T12:32:11.701Z,99014.66
2023-01-17T12:34:51.920Z,99018.22
2023-01-17T12:37:31.802Z,99010.34
2023-01-17T12:40:15.991Z,99011.34
2023-01-17T12:42:50.005Z,99012.09
2023-01-17T12:45:26.015Z,99000.53
2023-01-17T12:48:02.439Z,99004.44
2023-01-17T12:50:39.781Z,98995.97
2023-01-17T12:53:44.045Z,98999.03
2023-01-17T12:56:34.182Z,99003.47
2023-01-17T12:59:20.547Z,99010.03
2023-01-17T13:01:58.383Z,99006.28
2023-01-17T13:04:32.749Z,99006.81
2023-01-17T13:07:16.537Z,99009.94
2023-01-17T13:09:50.155Z,99008.03
2023-01-17T13:12:21.509Z,99005.91
2023-01-17T13:14:49.525Z,99002.97
2023-01-17T13:17:40.215Z,99006.28
2023-01-17T13:20:18.092Z,99014.19
2023-01-17T13:22:46.947Z,99005.53
2023-01-17T13:25:25.926Z,99008.94
2023-01-17T13:28:14.022Z,99008.66
2023-01-17T13:31:08.484Z,99009.63
2023-01-17T13:33:49.429Z,99009.34
2023-01-17T13:36:39.802Z,99010.41
2023-01-17T13:39:21.666Z,99006.72
2023-01-17T13:41:56.868Z,99007.78
2023-01-17T13:44:27.256Z,99005.84
2023-01-17T13:46:58.971Z,99014.81
2023-01-17T13:49:42.838Z,99011.13
2023-01-17T13:52:12.323Z,99009.53
2023-01-17T13:54:57.803Z,99017.38
2023-01-17T13:57:29.622Z,99019.50
2023-01-17T13:59:58.465Z,99026.13
2023-01-17T14:02:33.851Z,99031.03
2023-01-17T14:05:09.474Z,99021.84
2023-01-17T14:07:43.933Z,99030.53
2023-01-17T14:10:29.995Z,99029.75
2023-01-17T14:12:56.903Z,99041.06
2023-01-17T14:15:27.159Z,99036.78
2023-01-17T14:18:01.875Z,99045.94
2023-01-17T14:20:45.966Z,99047.78
2023-01-17T14:23:24.216Z,99048.56
2023-01-17T14:25:52.507Z,99054.44
2023-01-17T14:28:27.394Z,99043.91
2023-01-17T14:30:56.420Z,99051.00
2023-01-17T14:33:27.553Z,99033.38
2023-01-17T14:36:14.443Z,99041.44
2023-01-17T14:38:43.712Z,99037.75
2023-01-17T14:41:18.047Z,99044.41
2023-01-17T14:43:47.343Z,99037.28
2023-01-17T14:46:22.869Z,99040.19
2023-01-17T14:48:51.099Z,99043.91
2023-01-17T14:51:23.029Z,99037.56
2023-01-17T14:53:54.646Z,99047.88
2023-01-17T14:56:21.423Z,99037.06
2023-01-17T14:58:48.130Z,99035.50
2023-01-17T15:01:17.949Z,99037.34
2023-01-17T15:03:55.978Z,99046.31
2023-01-17T15:06:45.004Z,99052.13
2023-01-17T15:09:19.131Z,99045.09
2023-01-17T15:11:48.882Z,99048.81
2023-01-17T15:14:27.941Z,99055.63
2023-01-17T15:16:55.570Z,99053.00
2023-01-17T15:19:40.201Z,99053.78
2023-01-17T15:22:09.655Z,99057.22
2023-01-17T15:24:44.737Z,99066.47
2023-01-17T15:27:17.794Z,99070.16
2023-01-17T15:29:49.904Z,99077.28
2023-01-17T15:32:33.280Z,99074.16
2023-01-17T15:35:04.181Z,99072.06
2023-01-17T15:37:39.556Z,99070.03
2023-01-17T15:40:21.031Z,99071.88
2023-01-17T15:42:52.531Z,99071.09
2023-01-17T15:45:27.262Z,99072.94
2023-01-17T15:47:54.046Z,99071.66
2023-01-17T15:50:22.819Z,99076.16
2023-01-17T15:52:57.083Z,99067.94
2023-01-17T15:55:29.986Z,99062.50
2023-01-17T15:57:57.269Z,99064.31
2023-01-17T16:00:32.463Z,99073.84
2023-01-17T16:02:59.739Z,99063.91
2023-01-17T16:05:31.171Z,99075.81
2023-01-17T16:08:01.433Z,99069.25
2023-01-17T16:10:31.877Z,99069.53
2023-01-17T16:12:59.524Z,99069.31
2023-01-17T16:15:27.577Z,99064.16
2023-01-17T16:18:03.791Z,99074.50
2023-01-17T16:20:35.190Z,99071.16
2023-01-17T16:23:02.897Z,99065.09
2023-01-17T16:25:34.919Z,99074.84
2023-01-17T16:28:07.630Z,99075.44
2023-01-17T16:30:34.274Z,99072.56
2023-01-17T16:33:00.945Z,99085.00
2023-01-17T16:35:30.501Z,99084.00
2023-01-17T16:37:59.824Z,99091.94
2023-01-17T16:40:28.954Z,99085.91
2023-01-17T16:42:57.138Z,99086.75
2023-01-17T16:45:24.918Z,99086.81
2023-01-17T16:47:53.915Z,99095.25
2023-01-17T16:50:23.265Z,99094.47
2023-01-17T16:52:53.663Z,99092.69
2023-01-17T16:55:23.897Z,99098.78
2023-01-17T16:57:52.467Z,99103.03
2023-01-17T17:00:20.375Z,99096.75
2023-01-17T17:02:51.323Z,99102.88
2023-01-17T17:05:21.047Z,99105.75
2023-01-17T17:07:51.546Z,99115.75
2023-01-17T17:10:21.353Z,99111.84
2023-01-17T17:12:48.036Z,99121.28
2023-01-17T17:15:16.286Z,99120.78
2023-01-17T17:17:44.464Z,99129.44
2023-01-17T17:20:18.373Z,99122.91
2023-01-17T17:22:51.389Z,99132.13
2023-01-17T17:25:19.535Z,99134.75
2023-01-17T17:27:46.320Z,99138.41
2023-01-17T17:30:13.200Z,99133.72
2023-01-17T17:32:41.030Z,99130.59
2023-01-17T17:35:08.176Z,99138.75
2023-01-17T17:37:34.851Z,99138.03
2023-01-17T17:40:02.012Z,99149.56
2023-01-17T17:42:28.857Z,99145.66
2023-01-17T17:44:55.825Z,99150.41
2023-01-17T17:47:25.272Z,99157.78
2023-01-17T17:49:51.872Z,99164.06
2023-01-17T17:52:18.728Z,99169.88
2023-01-17T17:54:45.694Z,99167.28
2023-01-17T17:57:12.855Z,99180.97
2023-01-17T17:59:39.555Z,99178.34
2023-01-17T18:02:11.263Z,99178.88
2023-01-17T18:04:38.048Z,99177.59
2023-01-17T18:07:04.670Z,99184.41
2023-01-17T18:09:31.268Z,99181.28
2023-01-17T18:11:58.190Z,99188.38
2023-01-17T18:14:24.932Z,99193.88
2023-01-17T18:16:51.840Z,99195.75
2023-01-17T18:19:21.969Z,99205.16
2023-01-17T18:21:50.305Z,99202.84
2023-01-17T18:24:20.343Z,99210.47
2023-01-17T18:26:50.889Z,99208.41
2023-01-17T18:29:20.016Z,99214.44
2023-01-17T18:31:47.897Z,99222.31
2023-01-17T18:34:17.083Z,99221.00
2023-01-17T18:36:43.956Z,99230.19
2023-01-17T18:39:14.029Z,99237.28
2023-01-17T18:41:41.507Z,99237.53
2023-01-17T18:44:09.812Z,99238.34
2023-01-17T18:46:37.089Z,99245.41
2023-01-17T18:49:04.694Z,99237.56
2023-01-17T18:51:34.440Z,99246.50
2023-01-17T18:54:05.281Z,99241.00
2023-01-17T18:56:34.294Z,99244.91
2023-01-17T18:59:01.851Z,99238.38
2023-01-17T19:01:33.731Z,99241.25
2023-01-17T19:04:03.952Z,99245.75
2023-01-17T19:06:33.822Z,99241.84
2023-01-17T19:09:01.639Z,99247.59
2023-01-17T19:11:28.988Z,99247.09
2023-01-17T19:13:56.778Z,99251.31
2023-01-17T19:16:29.504Z,99257.59
2023-01-17T19:18:58.385Z,99250.78
2023-01-17T19:21:28.011Z,99257.06
2023-01-17T19:23:56.562Z,99259.94
2023-01-17T19:26:26.556Z,99266.53
2023-01-17T19:28:55.837Z,99265.22
2023-01-17T19:31:26.464Z,99265.22
2023-01-17T19:33:58.038Z,99268.63
2023-01-17T19:36:30.101Z,99270.72
2023-01-17T19:39:04.840Z,99271.50
2023-01-17T19:41:38.081Z,99273.34
2023-01-17T19:44:07.521Z,99275.97
2023-01-17T19:46:36.849Z,99273.09
2023-01-17T19:49:06.953Z,99284.38
2023-01-17T19:51:33.764Z,99278.09
2023-01-17T19:54:02.173Z,99287.00
2023-01-17T19:56:30.381Z,99283.31
2023-01-17T19:59:01.980Z,99275.47
2023-01-17T20:01:31.702Z,99280.16
2023-01-17T20:03:59.568Z,99277.00
2023-01-17T20:06:29.305Z,99284.63
2023-01-17T20:08:59.337Z,99280.69
2023-01-17T20:11:27.193Z,99279.91
2023-01-17T20:13:59.041Z,99285.66
2023-01-17T20:16:30.337Z,99289.09
2023-01-17T20:19:00.619Z,99288.03
2023-01-17T20:21:30.008Z,99285.41
2023-01-17T20:23:58.660Z,99287.75
2023-01-17T20:26:35.017Z,99288.84
2023-01-17T20:29:11.880Z,99287.00
2023-01-17T20:31:40.355Z,99284.63
2023-01-17T20:34:12.173Z,99285.44
2023-01-17T20:36:40.276Z,99278.88
2023-01-17T20:39:09.056Z,99278.34
2023-01-17T20:41:38.281Z,99280.97
2023-01-17T20:44:07.135Z,99282.81
2023-01-17T20:46:40.821Z,99288.84
2023-01-17T20:49:17.679Z,99289.63
2023-01-17T20:51:45.346Z,99294.88
2023-01-17T20:54:14.663Z,99290.97
2023-01-17T20:56:41.999Z,99292.81
2023-01-17T20:59:12.450Z,99296.22
2023-01-17T21:01:39.184Z,99299.88
2023-01-17T21:04:10.164Z,99289.66
2023-01-17T21:06:41.602Z,99289.94
2023-01-17T21:09:12.159Z,99295.72
2023-01-17T21:11:38.762Z,99291.53
2023-01-17T21:14:05.945Z,99293.41
2023-01-17T21:16:33.565Z,99308.34
2023-01-17T21:19:00.483Z,99306.50
2023-01-17T21:21:28.923Z,99306.50
2023-01-17T21:23:57.766Z,99312.78
2023-01-17T21:26:25.893Z,99313.28
2023-01-17T21:28:52.831Z,99308.56
2023-01-17T21:31:26.225Z,99308.81
2023-01-17T21:34:00.222Z,99313.00
2023-01-17T21:36:28.808Z,99308.56
2023-01-17T21:38:57.835Z,99308.03
2023-01-17T21:41:28.695Z,99316.91
2023-01-17T21:43:57.721Z,99299.88
2023-01-17T21:46:24.545Z,99311.91
2023-01-17T21:48:51.188Z,99307.19
2023-01-17T21:51:19.758Z,99314.75
2023-01-17T21:53:46.483Z,99307.41
2023-01-17T21:56:33.032Z,99307.94
2023-01-17T21:59:00.477Z,99309.25
2023-01-17T22:01:29.564Z,99306.34
2023-01-17T22:03:58.393Z,99313.91
2023-01-17T22:06:29.074Z,99315.47
2023-01-17T22:08:56.146Z,99313.09
2023-01-17T22:11:25.216Z,99319.63
2023-01-17T22:13:52.736Z,99322.78
2023-01-17T22:16:23.461Z,99327.72
2023-01-17T22:18:50.874Z,99333.97
2023-01-17T22:21:20.045Z,99327.66
2023-01-17T22:23:52.429Z,99338.63
2023-01-17T22:26:21.080Z,99330.75
2023-01-17T22:28:48.101Z,99340.66
2023-01-17T22:31:16.391Z,99343.53
2023-01-17T22:33:45.760Z,99343.28
2023-01-17T22:36:14.361Z,99346.66
2023-01-17T22:38:42.577Z,99342.97
2023-01-17T22:41:13.108Z,99349.47
2023-01-17T22:43:41.987Z,99348.91
2023-01-17T22:46:10.774Z,99356.22
2023-01-17T22:48:38.385Z,99353.34
2023-01-17T22:51:07.228Z,99350.19
2023-01-17T22:53:33.807Z,99353.53
2023-01-17T22:56:07.213Z,99356.13
2023-01-17T22:58:34.605Z,99354.00
2023-01-17T23:01:12.392Z,99350.88
2023-01-17T23:03:40.905Z,99348.50
2023-01-17T23:06:08.491Z,99348.75
2023-01-17T23:08:35.489Z,99339.59
2023-01-17T23:11:20.671Z,99347.91
2023-01-17T23:13:48.893Z,99349.72
2023-01-17T23:16:34.095Z,99350.97
2023-01-17T23:19:19.416Z,99345.50
2023-01-17T23:22:04.431Z,99344.41
2023-01-17T23:24:31.050Z,99341.50
2023-01-17T23:27:16.493Z,99340.19
2023-01-17T23:29:43.466Z,99340.13
2023-01-17T23:32:10.188Z,99341.16
2023-01-17T23:34:36.768Z,99341.09
2023-01-17T23:37:03.391Z,99342.63
2023-01-17T23:39:29.918Z,99346.28
2023-01-17T23:42:14.747Z,99347.03
2023-01-17T23:44:41.186Z,99345.44
2023-01-17T23:47:07.805Z,99346.50
2023-01-17T23:49:34.414Z,99347.53
2023-01-17T23:52:00.930Z,99349.59
2023-01-17T23:54:27.569Z,99353.53
2023-01-17T23:56:54.037Z,99348.56
2023-01-17T23:59:20.745Z,99347.53
